createdAt,value
2023-03-21T00:01:34.500Z,63.31
2023-03-21T00:03:38.192Z,63.09
2023-03-21T00:05:43.093Z,62.91
2023-03-21T00:07:45.716Z,62.67
2023-03-21T00:09:59.105Z,62.63
2023-03-21T00:12:09.772Z,62.62
2023-03-21T00:14:18.966Z,62.62
2023-03-21T00:16:25.180Z,62.43
2023-03-21T00:18:29.399Z,62.26
2023-03-21T00:20:41.179Z,62.26
2023-03-21T00:22:45.245Z,62.14
2023-03-21T00:24:47.751Z,61.98
2023-03-21T00:26:51.109Z,61.98
2023-03-21T00:28:53.712Z,62.30
2023-03-21T00:31:00.300Z,62.34
2023-03-21T00:33:19.691Z,62.26
2023-03-21T00:35:57.978Z,62.22
2023-03-21T00:38:00.672Z,61.81
2023-03-21T00:40:16.254Z,61.73
2023-03-21T00:42:26.382Z,61.21
2023-03-21T00:44:29.187Z,60.98
2023-03-21T00:46:42.721Z,60.75
2023-03-21T00:48:50.682Z,60.74
2023-03-21T00:51:02.978Z,60.69
2023-03-21T00:53:08.943Z,60.59
2023-03-21T00:55:18.062Z,60.52
2023-03-21T00:57:29.296Z,60.60
2023-03-21T00:59:39.375Z,60.51
2023-03-21T01:01:41.932Z,60.67
2023-03-21T01:03:51.903Z,60.58
2023-03-21T01:06:07.568Z,60.63
2023-03-21T01:08:24.484Z,60.93
2023-03-21T01:10:29.368Z,60.79
2023-03-21T01:12:31.968Z,60.77
2023-03-21T01:14:34.738Z,61.05
2023-03-21T01:16:38.532Z,61.32
2023-03-21T01:18:42.056Z,61.34
2023-03-21T01:20:45.961Z,61.36
2023-03-21T01:22:49.092Z,61.52
2023-03-21T01:24:58.604Z,61.86
2023-03-21T01:27:05.997Z,62.00
2023-03-21T01:29:09.020Z,62.12
2023-03-21T01:31:14.891Z,62.33
2023-03-21T01:33:19.250Z,62.00
2023-03-21T01:35:22.040Z,62.02
2023-03-21T01:37:26.559Z,61.72
2023-03-21T01:39:29.363Z,61.64
2023-03-21T01:41:44.336Z,61.51
2023-03-21T01:43:56.160Z,61.26
2023-03-21T01:46:10.878Z,61.41
2023-03-21T01:48:31.896Z,61.76
2023-03-21T01:50:37.044Z,61.86
2023-03-21T01:53:04.494Z,61.70
2023-03-21T01:55:14.951Z,61.67
2023-03-21T01:57:43.525Z,61.79
2023-03-21T01:59:55.374Z,61.79
2023-03-21T02:02:31.404Z,61.86
2023-03-21T02:04:56.246Z,61.59
2023-03-21T02:07:08.999Z,61.71
2023-03-21T02:09:28.052Z,61.89
2023-03-21T02:11:32.239Z,62.21
2023-03-21T02:13:36.337Z,62.24
2023-03-21T02:15:42.054Z,62.60
2023-03-21T02:18:20.866Z,62.53
2023-03-21T02:20:52.258Z,62.44
2023-03-21T02:23:16.266Z,62.42
2023-03-21T02:25:43.345Z,62.21
2023-03-21T02:27:55.869Z,62.10
2023-03-21T02:29:58.348Z,61.98
2023-03-21T02:32:25.390Z,62.29
2023-03-21T02:35:00.823Z,62.40
2023-03-21T02:37:36.637Z,62.53
2023-03-21T02:39:56.371Z,62.79
2023-03-21T02:41:59.503Z,62.33
2023-03-21T02:44:31.562Z,62.41
2023-03-21T02:46:49.177Z,62.53
2023-03-21T02:49:03.159Z,62.83
2023-03-21T02:51:09.315Z,62.88
2023-03-21T02:53:28.146Z,62.81
2023-03-21T02:55:35.954Z,63.06
2023-03-21T02:57:43.942Z,62.94
2023-03-21T02:59:55.673Z,62.83
2023-03-21T03:02:06.052Z,62.75
2023-03-21T03:04:23.055Z,62.76
2023-03-21T03:06:33.346Z,62.93
2023-03-21T03:09:08.612Z,63.01
2023-03-21T03:11:30.070Z,63.31
2023-03-21T03:13:35.468Z,63.27
2023-03-21T03:16:02.072Z,63.16
2023-03-21T03:18:21.429Z,63.28
2023-03-21T03:21:07.769Z,63.21
2023-03-21T03:23:19.246Z,63.38
2023-03-21T03:25:43.280Z,63.40
2023-03-21T03:27:51.304Z,63.31
2023-03-21T03:29:55.505Z,63.34
2023-03-21T03:32:25.753Z,63.33
2023-03-21T03:34:40.605Z,63.27
2023-03-21T03:36:51.552Z,63.19
2023-03-21T03:38:56.248Z,62.99
2023-03-21T03:41:08.121Z,62.89
2023-03-21T03:43:24.463Z,63.05
2023-03-21T03:45:35.187Z,63.07
2023-03-21T03:47:56.025Z,62.85
2023-03-21T03:50:13.871Z,62.90
2023-03-21T03:52:23.788Z,63.04
2023-03-21T03:54:39.357Z,63.21
2023-03-21T03:56:43.472Z,63.38
2023-03-21T03:58:46.446Z,63.24
2023-03-21T04:00:54.382Z,63.18
2023-03-21T04:02:59.163Z,63.15
2023-03-21T04:05:04.184Z,63.40
2023-03-21T04:07:07.882Z,63.20
2023-03-21T04:09:20.516Z,63.14
2023-03-21T04:11:28.233Z,62.80
2023-03-21T04:13:31.491Z,62.85
2023-03-21T04:15:44.528Z,62.89
2023-03-21T04:17:50.596Z,62.95
2023-03-21T04:19:59.980Z,63.13
2023-03-21T04:22:10.030Z,63.30
2023-03-21T04:24:15.294Z,63.42
2023-03-21T04:26:18.077Z,63.48
2023-03-21T04:28:37.286Z,63.32
2023-03-21T04:31:05.288Z,63.05
2023-03-21T04:33:18.401Z,63.07
2023-03-21T04:35:27.263Z,63.04
2023-03-21T04:37:33.933Z,63.16
2023-03-21T04:39:37.174Z,63.11
2023-03-21T04:41:46.801Z,63.15
2023-03-21T04:43:49.643Z,63.20
2023-03-21T04:45:52.634Z,63.42
2023-03-21T04:47:57.353Z,63.61
2023-03-21T04:50:00.804Z,63.72
2023-03-21T04:52:03.771Z,63.76
2023-03-21T04:56:10.288Z,64.27
2023-03-21T04:58:13.299Z,64.39
2023-03-21T05:00:16.645Z,64.22
2023-03-21T05:02:21.271Z,64.11
2023-03-21T05:04:25.174Z,63.98
2023-03-21T05:06:28.315Z,64.23
2023-03-21T05:08:32.218Z,64.23
2023-03-21T05:10:36.734Z,64.34
2023-03-21T05:12:39.808Z,64.14
2023-03-21T05:14:42.410Z,64.12
2023-03-21T05:16:53.504Z,64.14
2023-03-21T05:19:10.782Z,63.88
2023-03-21T05:21:18.295Z,64.07
2023-03-21T05:23:22.946Z,63.82
2023-03-21T05:25:35.425Z,63.91
2023-03-21T05:27:46.225Z,63.79
2023-03-21T05:29:51.118Z,63.91
2023-03-21T05:31:58.749Z,63.84
2023-03-21T05:34:08.424Z,63.66
2023-03-21T05:36:12.442Z,63.51
2023-03-21T05:38:15.235Z,63.50
2023-03-21T05:40:25.801Z,63.45
2023-03-21T05:42:33.322Z,63.61
2023-03-21T05:44:37.171Z,63.77
2023-03-21T05:46:40.468Z,63.92
2023-03-21T05:48:43.163Z,64.02
2023-03-21T05:50:50.784Z,64.20
2023-03-21T05:52:56.088Z,64.41
2023-03-21T05:55:04.027Z,64.29
2023-03-21T05:57:07.200Z,64.72
2023-03-21T05:59:34.424Z,64.85
2023-03-21T06:01:37.502Z,64.63
2023-03-21T06:03:44.982Z,64.69
2023-03-21T06:06:07.819Z,64.46
2023-03-21T06:08:14.529Z,64.56
2023-03-21T06:10:21.256Z,64.60
2023-03-21T06:12:24.568Z,64.35
2023-03-21T06:14:59.725Z,64.08
2023-03-21T06:17:25.746Z,64.00
2023-03-21T06:19:32.779Z,63.99
2023-03-21T06:21:45.831Z,64.02
2023-03-21T06:23:52.924Z,64.00
2023-03-21T06:25:55.814Z,64.01
2023-03-21T06:28:02.257Z,64.00
2023-03-21T06:30:07.111Z,63.83
2023-03-21T06:32:14.289Z,63.57
2023-03-21T06:34:17.277Z,63.23
2023-03-21T06:36:30.292Z,63.07
2023-03-21T06:38:39.868Z,62.78
2023-03-21T06:40:42.684Z,62.84
2023-03-21T06:42:46.053Z,62.84
2023-03-21T06:44:49.566Z,62.63
2023-03-21T06:46:54.204Z,62.73
2023-03-21T06:48:57.805Z,62.93
2023-03-21T06:51:01.102Z,62.80
2023-03-21T06:53:05.151Z,62.70
2023-03-21T06:55:10.373Z,62.73
2023-03-21T06:57:14.359Z,62.75
2023-03-21T06:59:17.589Z,63.07
2023-03-21T07:01:35.518Z,63.00
2023-03-21T07:03:41.809Z,63.02
2023-03-21T07:05:44.794Z,62.97
2023-03-21T07:07:51.491Z,62.97
2023-03-21T07:09:56.174Z,63.07
2023-03-21T07:11:59.673Z,63.23
2023-03-21T07:14:12.161Z,63.18
2023-03-21T07:16:17.108Z,62.90
2023-03-21T07:18:20.631Z,62.87
2023-03-21T07:20:23.720Z,62.69
2023-03-21T07:22:27.056Z,62.48
2023-03-21T07:24:29.883Z,62.64
2023-03-21T07:26:33.238Z,62.30
2023-03-21T07:28:36.187Z,62.19
2023-03-21T07:30:44.020Z,62.09
2023-03-21T07:32:53.929Z,62.07
2023-03-21T07:35:07.700Z,62.09
2023-03-21T07:37:10.853Z,62.07
2023-03-21T07:39:13.495Z,62.03
2023-03-21T07:43:20.514Z,61.60
2023-03-21T07:45:27.521Z,61.55
2023-03-21T07:47:30.831Z,61.50
2023-03-21T07:49:37.727Z,61.43
2023-03-21T07:51:40.465Z,61.28
2023-03-21T07:53:44.286Z,61.22
2023-03-21T07:55:56.383Z,61.42
2023-03-21T07:57:59.431Z,61.35
2023-03-21T08:00:04.107Z,61.31
2023-03-21T08:02:17.380Z,61.35
2023-03-21T08:04:22.534Z,61.16
2023-03-21T08:06:28.770Z,60.96
2023-03-21T08:08:31.632Z,61.13
2023-03-21T08:10:36.589Z,60.80
2023-03-21T08:12:41.273Z,60.68
2023-03-21T08:14:43.956Z,60.77
2023-03-21T08:16:46.743Z,60.82
2023-03-21T08:18:49.778Z,60.87
2023-03-21T08:20:57.096Z,60.77
2023-03-21T08:23:00.674Z,60.77
2023-03-21T08:25:07.058Z,60.67
2023-03-21T08:27:10.019Z,60.83
2023-03-21T08:29:13.796Z,60.67
2023-03-21T08:31:20.306Z,60.68
2023-03-21T08:33:26.552Z,60.48
2023-03-21T08:35:41.138Z,60.36
2023-03-21T08:37:44.991Z,60.18
2023-03-21T08:39:48.452Z,60.08
2023-03-21T08:41:51.470Z,59.98
2023-03-21T08:43:54.199Z,60.02
2023-03-21T08:45:57.167Z,59.78
2023-03-21T08:47:59.970Z,59.73
2023-03-21T08:50:03.874Z,59.79
2023-03-21T08:52:07.059Z,59.63
2023-03-21T08:54:19.787Z,59.58
2023-03-21T08:56:22.632Z,59.49
2023-03-21T08:58:25.552Z,59.48
2023-03-21T09:00:28.943Z,59.31
2023-03-21T09:02:31.712Z,59.18
2023-03-21T09:04:34.826Z,58.98
2023-03-21T09:06:38.612Z,59.09
2023-03-21T09:08:41.995Z,58.80
2023-03-21T09:10:44.667Z,58.60
2023-03-21T09:12:48.359Z,58.74
2023-03-21T09:14:53.252Z,59.05
2023-03-21T09:16:56.205Z,58.80
2023-03-21T09:19:00.129Z,58.62
2023-03-21T09:21:12.735Z,58.47
2023-03-21T09:23:17.183Z,58.88
2023-03-21T09:25:21.016Z,58.79
2023-03-21T09:27:25.945Z,58.88
2023-03-21T09:29:29.624Z,58.70
2023-03-21T09:31:33.259Z,58.53
2023-03-21T09:33:36.441Z,58.53
2023-03-21T09:35:39.423Z,58.06
2023-03-21T09:37:43.939Z,57.61
2023-03-21T09:39:46.895Z,57.54
2023-03-21T09:42:12.598Z,57.44
2023-03-21T09:44:59.959Z,57.41
2023-03-21T09:47:33.130Z,57.54
2023-03-21T09:49:40.841Z,57.71
2023-03-21T09:51:52.064Z,57.74
2023-03-21T09:53:57.786Z,57.61
2023-03-21T09:56:02.550Z,56.99
2023-03-21T09:58:32.006Z,57.15
2023-03-21T10:00:40.691Z,57.21
2023-03-21T10:02:49.479Z,56.94
2023-03-21T10:04:53.043Z,56.78
2023-03-21T10:07:02.230Z,57.02
2023-03-21T10:09:11.387Z,56.96
2023-03-21T10:11:24.064Z,56.92
2023-03-21T10:13:33.840Z,56.70
2023-03-21T10:15:38.138Z,56.28
2023-03-21T10:17:43.790Z,56.41
2023-03-21T10:19:50.297Z,56.41
2023-03-21T10:22:01.195Z,56.24
2023-03-21T10:24:12.309Z,56.42
2023-03-21T10:26:21.094Z,56.20
2023-03-21T10:28:42.331Z,55.93
2023-03-21T10:30:59.071Z,56.00
2023-03-21T10:33:05.858Z,55.67
2023-03-21T10:35:13.507Z,55.94
2023-03-21T10:37:17.614Z,56.09
2023-03-21T10:39:29.943Z,56.17
2023-03-21T10:41:33.930Z,55.93
2023-03-21T10:43:42.163Z,55.95
2023-03-21T10:45:47.338Z,56.03
2023-03-21T10:47:51.666Z,55.98
2023-03-21T10:50:07.173Z,55.82
2023-03-21T10:52:13.794Z,55.47
2023-03-21T10:54:32.626Z,55.24
2023-03-21T10:56:40.917Z,55.29
2023-03-21T10:58:48.150Z,55.67
2023-03-21T11:01:00.724Z,55.56
2023-03-21T11:03:05.525Z,55.36
2023-03-21T11:05:27.531Z,55.38
2023-03-21T11:07:31.803Z,55.43
2023-03-21T11:10:03.286Z,54.90
2023-03-21T11:12:15.777Z,55.06
2023-03-21T11:14:47.589Z,55.06
2023-03-21T11:16:51.549Z,55.22
2023-03-21T11:19:01.520Z,55.72
2023-03-21T11:21:07.442Z,54.84
2023-03-21T11:23:13.016Z,54.62
2023-03-21T11:25:42.713Z,54.45
2023-03-21T11:27:51.865Z,54.28
2023-03-21T11:29:57.960Z,54.49
2023-03-21T11:32:02.474Z,54.11
2023-03-21T11:34:09.749Z,54.19
2023-03-21T11:36:18.132Z,54.26
2023-03-21T11:38:29.048Z,53.74
2023-03-21T11:40:36.775Z,53.83
2023-03-21T11:42:43.468Z,53.66
2023-03-21T11:44:47.696Z,53.40
2023-03-21T11:46:57.498Z,53.83
2023-03-21T11:49:04.325Z,53.78
2023-03-21T11:51:27.854Z,54.34
2023-03-21T11:53:46.648Z,54.04
2023-03-21T11:56:20.638Z,54.22
2023-03-21T11:59:01.197Z,53.55
2023-03-21T12:01:51.955Z,53.25
2023-03-21T12:04:26.178Z,53.11
2023-03-21T12:06:37.007Z,53.05
2023-03-21T12:09:04.049Z,53.14
2023-03-21T12:11:48.259Z,53.73
2023-03-21T12:14:40.226Z,53.26
2023-03-21T12:17:06.403Z,52.85
2023-03-21T12:19:42.746Z,53.13
2023-03-21T12:21:47.550Z,53.03
2023-03-21T12:24:10.453Z,53.46
2023-03-21T12:26:29.637Z,53.05
2023-03-21T12:28:47.230Z,52.60
2023-03-21T12:31:04.476Z,52.54
2023-03-21T12:33:21.494Z,52.75
2023-03-21T12:36:03.214Z,52.82
2023-03-21T12:38:13.543Z,52.39
2023-03-21T12:40:22.246Z,52.40
2023-03-21T12:42:42.627Z,52.66
2023-03-21T12:44:52.126Z,52.55
2023-03-21T12:47:30.804Z,52.49
2023-03-21T12:49:36.702Z,52.09
2023-03-21T12:51:47.695Z,51.52
2023-03-21T12:54:00.229Z,51.86
2023-03-21T12:56:12.020Z,51.66
2023-03-21T12:58:19.856Z,51.96
2023-03-21T13:04:09.720Z,51.90
2023-03-21T13:06:15.566Z,51.70
2023-03-21T13:08:21.183Z,51.87
2023-03-21T13:10:24.424Z,51.44
2023-03-21T13:13:10.423Z,51.37
2023-03-21T13:15:32.108Z,51.22
2023-03-21T13:17:45.374Z,51.01
2023-03-21T13:19:59.509Z,50.93
2023-03-21T13:22:28.693Z,51.27
2023-03-21T13:24:56.401Z,51.04
2023-03-21T13:27:06.931Z,51.57
2023-03-21T13:29:14.520Z,51.57
2023-03-21T13:31:22.404Z,51.20
2023-03-21T13:33:30.235Z,50.71
2023-03-21T13:35:38.258Z,51.05
2023-03-21T13:37:49.299Z,50.79
2023-03-21T13:39:52.219Z,50.69
2023-03-21T13:41:56.190Z,50.66
2023-03-21T13:44:18.853Z,50.29
2023-03-21T13:46:34.133Z,50.36
2023-03-21T13:48:59.384Z,50.36
2023-03-21T13:51:04.730Z,50.24
2023-03-21T13:53:16.076Z,50.44
2023-03-21T13:55:20.616Z,50.29
2023-03-21T13:57:33.304Z,49.98
2023-03-21T13:59:41.008Z,49.88
2023-03-21T14:02:00.168Z,49.99
2023-03-21T14:04:15.565Z,50.21
2023-03-21T14:06:18.960Z,50.09
2023-03-21T14:08:34.803Z,49.80
2023-03-21T14:10:43.529Z,49.71
2023-03-21T14:12:47.384Z,49.66
2023-03-21T14:15:15.812Z,49.18
2023-03-21T14:17:26.146Z,49.58
2023-03-21T14:19:31.196Z,49.56
2023-03-21T14:21:36.145Z,49.74
2023-03-21T14:23:39.374Z,49.99
2023-03-21T14:25:47.497Z,49.98
2023-03-21T14:27:55.615Z,50.09
2023-03-21T14:29:59.350Z,50.61
2023-03-21T14:32:05.655Z,50.47
2023-03-21T14:34:12.528Z,50.10
2023-03-21T14:36:23.522Z,50.22
2023-03-21T14:38:32.646Z,50.06
2023-03-21T14:40:36.149Z,50.00
2023-03-21T14:42:47.460Z,49.79
2023-03-21T14:44:55.986Z,49.43
2023-03-21T14:47:06.815Z,48.88
2023-03-21T14:49:25.761Z,48.73
2023-03-21T14:51:29.715Z,49.58
2023-03-21T14:53:36.953Z,49.69
2023-03-21T14:55:46.282Z,49.24
2023-03-21T14:57:49.272Z,49.46
2023-03-21T14:59:55.866Z,49.64
2023-03-21T15:02:03.646Z,49.74
2023-03-21T15:04:07.430Z,49.75
2023-03-21T15:06:21.128Z,50.03
2023-03-21T15:08:26.692Z,50.13
2023-03-21T15:10:31.757Z,49.63
2023-03-21T15:12:34.706Z,49.80
2023-03-21T15:14:38.464Z,49.38
2023-03-21T15:16:41.473Z,49.50
2023-03-21T15:18:45.334Z,49.87
2023-03-21T15:20:51.189Z,49.61
2023-03-21T15:23:03.498Z,49.61
2023-03-21T15:25:08.884Z,49.90
2023-03-21T15:27:17.405Z,49.95
2023-03-21T15:29:20.013Z,50.28
2023-03-21T15:31:25.716Z,50.42
2023-03-21T15:33:28.552Z,50.06
2023-03-21T15:35:38.846Z,49.96
2023-03-21T15:37:41.836Z,49.94
2023-03-21T15:39:49.122Z,50.19
2023-03-21T15:42:01.579Z,50.10
2023-03-21T15:44:10.152Z,50.35
2023-03-21T15:46:16.310Z,50.02
2023-03-21T15:48:29.564Z,50.25
2023-03-21T15:50:37.664Z,50.69
2023-03-21T15:52:41.160Z,50.70
2023-03-21T15:54:48.076Z,51.24
2023-03-21T15:57:03.229Z,51.24
2023-03-21T15:59:14.168Z,51.32
2023-03-21T16:01:19.852Z,51.60
2023-03-21T16:03:30.404Z,51.91
2023-03-21T16:05:34.127Z,52.04
2023-03-21T16:07:36.657Z,51.91
2023-03-21T16:09:42.988Z,52.20
2023-03-21T16:11:50.962Z,52.45
2023-03-21T16:13:54.942Z,52.74
2023-03-21T16:15:57.532Z,53.14
2023-03-21T16:18:03.951Z,53.86
2023-03-21T16:20:20.201Z,54.10
2023-03-21T16:22:22.790Z,54.41
2023-03-21T16:24:25.439Z,54.59
2023-03-21T16:26:31.622Z,54.58
2023-03-21T16:28:34.490Z,54.54
2023-03-21T16:30:38.584Z,54.48
2023-03-21T16:32:41.760Z,54.28
2023-03-21T16:34:46.457Z,54.14
2023-03-21T16:36:49.306Z,54.19
2023-03-21T16:38:53.105Z,54.53
2023-03-21T16:40:55.893Z,54.82
2023-03-21T16:42:58.551Z,55.14
2023-03-21T16:45:01.343Z,55.34
2023-03-21T16:47:04.172Z,55.73
2023-03-21T16:49:18.543Z,56.17
2023-03-21T16:51:30.526Z,56.45
2023-03-21T16:53:33.007Z,56.76
2023-03-21T16:55:37.132Z,57.07
2023-03-21T16:57:40.318Z,57.52
2023-03-21T16:59:43.181Z,57.58
2023-03-21T17:01:47.824Z,57.77
2023-03-21T17:03:50.724Z,58.10
2023-03-21T17:05:53.626Z,58.32
2023-03-21T17:07:56.767Z,58.44
2023-03-21T17:09:59.417Z,58.47
2023-03-21T17:12:02.426Z,58.85
2023-03-21T17:14:05.034Z,58.84
2023-03-21T17:16:09.610Z,59.09
2023-03-21T17:18:13.322Z,59.19
2023-03-21T17:20:25.959Z,59.49
2023-03-21T17:22:28.615Z,59.97
2023-03-21T17:24:31.647Z,60.03
2023-03-21T17:26:34.380Z,60.28
2023-03-21T17:28:37.891Z,60.62
2023-03-21T17:30:41.437Z,60.76
2023-03-21T17:32:44.315Z,60.87
2023-03-21T17:34:48.478Z,60.99
2023-03-21T17:36:51.604Z,61.01
2023-03-21T17:38:55.383Z,61.07
2023-03-21T17:41:00.599Z,61.02
2023-03-21T17:43:03.527Z,61.41
2023-03-21T17:45:07.072Z,61.61
2023-03-21T17:47:12.974Z,61.64
2023-03-21T17:49:16.505Z,61.80
2023-03-21T17:51:20.331Z,62.08
2023-03-21T17:53:23.535Z,62.34
2023-03-21T17:55:26.344Z,62.64
2023-03-21T17:57:28.867Z,62.86
2023-03-21T17:59:31.625Z,62.85
2023-03-21T18:01:35.419Z,62.97
2023-03-21T18:03:38.427Z,63.41
2023-03-21T18:05:41.086Z,63.89
2023-03-21T18:10:12.858Z,64.45
2023-03-21T18:12:15.393Z,64.56
2023-03-21T18:14:27.014Z,64.80
2023-03-21T18:16:31.500Z,64.74
2023-03-21T18:18:34.103Z,64.59
2023-03-21T18:20:54.266Z,64.95
2023-03-21T18:22:57.314Z,64.95
2023-03-21T18:25:00.291Z,64.95
2023-03-21T18:27:03.993Z,65.11
2023-03-21T18:30:13.090Z,65.37
2023-03-21T18:31:29.887Z,65.53
2023-03-21T18:33:33.658Z,65.65
2023-03-21T18:35:38.618Z,65.76
2023-03-21T18:37:42.359Z,65.96
2023-03-21T18:39:46.277Z,66.00
2023-03-21T18:41:48.864Z,66.00
2023-03-21T18:44:02.672Z,66.25
2023-03-21T18:46:13.009Z,65.92
2023-03-21T18:48:16.393Z,66.13
2023-03-21T18:50:20.974Z,66.23
2023-03-21T18:52:26.579Z,66.47
2023-03-21T18:54:30.262Z,66.52
2023-03-21T18:57:26.803Z,66.63
2023-03-21T18:58:57.161Z,66.16
2023-03-21T19:01:00.785Z,66.04
2023-03-21T19:03:18.819Z,66.15
2023-03-21T19:05:25.542Z,66.33
2023-03-21T19:07:28.169Z,66.48
2023-03-21T19:09:32.178Z,66.84
2023-03-21T19:11:35.876Z,66.86
2023-03-21T19:13:38.696Z,66.95
2023-03-21T19:15:42.117Z,67.15
2023-03-21T19:18:30.341Z,67.22
2023-03-21T19:20:08.717Z,67.31
2023-03-21T19:22:12.768Z,67.21
2023-03-21T19:24:27.114Z,67.35
2023-03-21T19:26:31.145Z,67.39
2023-03-21T19:28:33.789Z,67.41
2023-03-21T19:30:36.782Z,67.32
2023-03-21T19:32:39.786Z,67.21
2023-03-21T19:34:42.538Z,67.35
2023-03-21T19:36:50.748Z,67.45
2023-03-21T19:38:53.929Z,67.63
2023-03-21T19:41:00.482Z,67.67
2023-03-21T19:43:21.666Z,67.60
2023-03-21T19:45:26.505Z,67.70
2023-03-21T19:47:29.044Z,67.74
2023-03-21T19:50:00.725Z,67.60
2023-03-21T19:51:56.042Z,67.75
2023-03-21T19:53:59.992Z,67.45
2023-03-21T19:56:04.891Z,67.29
2023-03-21T19:58:16.143Z,67.37
2023-03-21T20:00:20.019Z,67.38
2023-03-21T20:02:35.094Z,67.61
2023-03-21T20:04:39.443Z,67.61
2023-03-21T20:06:42.106Z,67.65
2023-03-21T20:11:07.495Z,67.66
2023-03-21T20:13:10.129Z,67.92
2023-03-21T20:15:19.199Z,68.18
2023-03-21T20:17:22.934Z,68.21
2023-03-21T20:19:25.775Z,68.29
2023-03-21T20:21:34.061Z,68.33
2023-03-21T20:23:43.990Z,68.31
2023-03-21T20:25:47.144Z,68.31
2023-03-21T20:28:09.210Z,68.46
2023-03-21T20:30:16.123Z,68.29
2023-03-21T20:32:18.834Z,68.43
2023-03-21T20:34:21.751Z,68.51
2023-03-21T20:36:39.417Z,68.46
2023-03-21T20:38:46.706Z,68.43
2023-03-21T20:40:51.025Z,68.60
2023-03-21T20:42:56.185Z,68.38
2023-03-21T20:45:00.813Z,68.44
2023-03-21T20:47:05.533Z,68.62
2023-03-21T20:49:08.137Z,68.34
2023-03-21T20:52:14.788Z,68.26
2023-03-21T20:53:37.513Z,68.21
2023-03-21T20:55:40.433Z,68.36
2023-03-21T20:57:44.325Z,68.43
2023-03-21T20:59:48.545Z,68.26
2023-03-21T21:01:51.170Z,68.55
2023-03-21T21:03:57.544Z,68.44
2023-03-21T21:06:00.496Z,68.56
2023-03-21T21:08:03.775Z,68.64
2023-03-21T21:10:12.760Z,68.62
2023-03-21T21:12:17.538Z,68.63
2023-03-21T21:14:20.219Z,68.63
2023-03-21T21:16:23.064Z,68.60
2023-03-21T21:18:25.932Z,68.59
2023-03-21T21:20:28.721Z,68.49
2023-03-21T21:22:31.571Z,68.47
2023-03-21T21:24:36.189Z,68.34
2023-03-21T21:26:41.012Z,68.37
2023-03-21T21:28:47.909Z,68.50
2023-03-21T21:30:58.670Z,68.46
2023-03-21T21:33:01.653Z,68.41
2023-03-21T21:35:04.528Z,68.32
2023-03-21T21:37:07.378Z,68.42
2023-03-21T21:39:09.847Z,68.36
2023-03-21T21:41:18.699Z,68.34
2023-03-21T21:43:27.245Z,68.32
2023-03-21T21:45:29.974Z,68.40
2023-03-21T21:47:32.950Z,68.29
2023-03-21T21:49:35.950Z,68.47
2023-03-21T21:51:41.909Z,68.46
2023-03-21T21:53:46.319Z,68.28
2023-03-21T21:55:50.234Z,68.19
2023-03-21T21:57:58.083Z,68.19
2023-03-21T22:00:02.032Z,68.42
2023-03-21T22:02:14.640Z,68.41
2023-03-21T22:04:18.155Z,68.36
2023-03-21T22:06:21.016Z,68.70
2023-03-21T22:08:23.640Z,68.85
2023-03-21T22:10:27.587Z,68.95
2023-03-21T22:12:30.471Z,69.05
2023-03-21T22:14:34.087Z,68.89
2023-03-21T22:16:37.775Z,69.00
2023-03-21T22:18:40.455Z,68.45
2023-03-21T22:20:44.019Z,68.40
2023-03-21T22:22:47.423Z,68.58
2023-03-21T22:24:50.333Z,68.38
2023-03-21T22:26:59.236Z,68.45
2023-03-21T22:29:02.030Z,68.30
2023-03-21T22:31:17.651Z,68.33
2023-03-21T22:33:22.247Z,68.37
2023-03-21T22:35:24.815Z,68.53
2023-03-21T22:37:30.666Z,68.72
2023-03-21T22:39:33.420Z,68.44
2023-03-21T22:41:36.051Z,68.46
2023-03-21T22:43:38.674Z,68.40
2023-03-21T22:45:41.891Z,68.00
2023-03-21T22:47:44.539Z,68.02
2023-03-21T22:49:47.158Z,68.36
2023-03-21T22:51:49.768Z,68.17
2023-03-21T22:53:52.502Z,67.91
2023-03-21T22:55:55.763Z,68.03
2023-03-21T22:57:58.356Z,68.06
2023-03-21T23:00:01.396Z,68.33
2023-03-21T23:02:04.048Z,68.54
2023-03-21T23:04:06.990Z,68.55
2023-03-21T23:06:09.731Z,68.41
2023-03-21T23:08:12.941Z,68.36
2023-03-21T23:10:15.610Z,68.45
2023-03-21T23:12:18.764Z,68.56
2023-03-21T23:14:22.510Z,68.48
2023-03-21T23:16:28.240Z,68.42
2023-03-21T23:18:33.758Z,68.47
2023-03-21T23:20:36.912Z,68.57
2023-03-21T23:22:40.493Z,68.54
2023-03-21T23:24:43.758Z,68.48
2023-03-21T23:26:46.594Z,68.49
2023-03-21T23:28:50.145Z,68.48
2023-03-21T23:30:53.026Z,68.43
2023-03-21T23:32:56.191Z,68.60
2023-03-21T23:34:59.488Z,68.57
2023-03-21T23:37:02.299Z,68.43
2023-03-21T23:39:04.912Z,68.71
2023-03-21T23:41:09.944Z,68.70
2023-03-21T23:43:12.628Z,68.71
2023-03-21T23:45:15.629Z,68.44
2023-03-21T23:47:19.304Z,68.72
2023-03-21T23:49:22.179Z,68.62
2023-03-21T23:51:24.748Z,68.75
2023-03-21T23:53:27.462Z,68.71
2023-03-21T23:55:31.773Z,68.68
2023-03-21T23:57:35.131Z,68.53
2023-03-21T23:59:37.599Z,68.76
